Time;durP1;ratioP1;P1;durP2;ratioP2;P2;SDS_P1;SDS_P2;PMS_P1;PMS_P2;Temp;Humidity;BMP_temperature;BMP_pressure;BME280_temperature;BME280_humidity;BME280_pressure;Samples;Min_cycle;Max_cycle;Signal;HPM_P1;HPM_P2
2023/10/22 00:00:56;;;;;;;;;;;;;;;13.49;100.00;100448.52;109662;1241;73484;-71
2023/10/22 00:03:45;;;;;;;;;;;;;;;13.53;100.00;100449.18;109649;1244;58365;-70
2023/10/22 00:06:14;;;;;;;;;;;;;;;13.57;100.00;100450.59;109543;1243;59048;-70
2023/10/22 00:08:42;;;;;;;;;;;;;;;13.60;100.00;100455.25;109544;1241;73415;-71
2023/10/22 00:11:11;;;;;;;;;;;;;;;13.61;100.00;100455.46;109688;1241;62389;-71
2023/10/22 00:13:39;;;;;;;;;;;;;;;13.61;100.00;100453.18;109721;1241;61025;-71
2023/10/22 00:16:08;;;;;;;;;;;;;;;13.65;100.00;100449.02;109687;1241;63020;-71
2023/10/22 00:18:36;;;;;;;;;;;;;;;13.64;100.00;100442.14;109697;1245;62870;-71
2023/10/22 00:21:08;;;;;;;;;;;;;;;13.58;100.00;100436.30;109793;1241;58277;-71
2023/10/22 00:23:37;;;;;;;;;;;;;;;13.56;100.00;100432.55;109646;1241;73735;-72
2023/10/22 00:26:12;;;;;;;;;;;;;;;13.45;100.00;100426.77;109622;1245;62014;-72
2023/10/22 00:28:41;;;;;;;;;;;;;;;13.41;100.00;100428.05;109649;1241;69445;-72
2023/10/22 00:31:10;;;;;;;;;;;;;;;13.38;100.00;100425.89;109652;1241;62814;-72
2023/10/22 00:33:38;;;;;;;;;;;;;;;13.29;100.00;100420.08;109708;1245;62631;-72
2023/10/22 00:36:07;;;;;;;;;;;;;;;13.29;100.00;100419.34;109661;1241;61281;-72
2023/10/22 00:38:36;;;;;;;;;;;;;;;13.28;100.00;100419.95;109711;1245;63992;-72
2023/10/22 00:41:05;;;;;;;;;;;;;;;13.24;100.00;100466.77;109721;1241;70166;-72
2023/10/22 00:43:35;;;;;;;;;;;;;;;13.29;100.00;100455.34;109714;1241;70126;-72
2023/10/22 00:46:03;;;;;;;;;;;;;;;13.32;100.00;100455.98;109593;1245;75044;-72
2023/10/22 00:48:32;;;;;;;;;;;;;;;13.33;100.00;100452.37;109699;1244;58295;-72
2023/10/22 00:51:01;;;;;;;;;;;;;;;13.34;100.00;100445.67;109663;1245;58344;-72
2023/10/22 00:53:31;;;;;;;;;;;;;;;13.35;100.00;100456.60;109625;1241;74313;-72
2023/10/22 00:56:00;;;;;;;;;;;;;;;13.39;100.00;100448.32;109637;1241;72126;-71
2023/10/22 00:58:29;;;;;;;;;;;;;;;13.43;100.00;100452.19;109636;1241;69788;-71
2023/10/22 01:00:59;;;;;;;;;;;;;;;13.39;100.00;100448.70;109688;1241;74318;-72
2023/10/22 01:03:27;;;;;;;;;;;;;;;13.36;100.00;100447.34;109598;1245;62587;-72
2023/10/22 01:05:56;;;;;;;;;;;;;;;13.39;100.00;100447.84;109611;1241;61831;-72
2023/10/22 01:08:25;;;;;;;;;;;;;;;13.37;100.00;100453.08;109596;1241;65648;-72
2023/10/22 01:11:04;;;;;;;;;;;;;;;13.37;100.00;100455.84;109692;1241;70906;-72
2023/10/22 01:13:32;;;;;;;;;;;;;;;13.38;100.00;100453.70;109496;1241;70759;-72
2023/10/22 01:16:01;;;;;;;;;;;;;;;13.33;100.00;100456.76;109627;1241;62675;-72
2023/10/22 01:18:30;;;;;;;;;;;;;;;13.26;100.00;100457.37;109729;1245;58353;-72
2023/10/22 01:20:59;;;;;;;;;;;;;;;13.15;100.00;100452.72;109665;1245;59529;-72
2023/10/22 01:23:27;;;;;;;;;;;;;;;13.08;100.00;100447.57;109693;1241;75594;-72
2023/10/22 01:25:56;;;;;;;;;;;;;;;13.07;100.00;100443.45;109742;1244;61960;-72
2023/10/22 01:28:24;;;;;;;;;;;;;;;13.06;100.00;100436.59;109717;1242;70362;-72
2023/10/22 01:30:56;;;;;;;;;;;;;;;13.04;100.00;100434.75;109635;1245;62756;-72
2023/10/22 01:33:24;;;;;;;;;;;;;;;12.98;100.00;100435.42;109647;1244;62840;-72
2023/10/22 01:35:53;;;;;;;;;;;;;;;12.92;100.00;100436.84;109479;1241;61526;-72
2023/10/22 01:38:22;;;;;;;;;;;;;;;12.86;100.00;100432.45;109694;1244;64714;-73
2023/10/22 01:40:50;;;;;;;;;;;;;;;12.81;100.00;100428.08;109592;1244;72068;-72
2023/10/22 01:43:19;;;;;;;;;;;;;;;12.81;100.00;100436.07;109715;1244;59356;-72
2023/10/22 01:45:47;;;;;;;;;;;;;;;12.77;100.00;100434.11;109701;1241;72911;-72
2023/10/22 01:48:16;;;;;;;;;;;;;;;12.69;100.00;100428.23;109674;1244;63058;-72
2023/10/22 01:50:45;;;;;;;;;;;;;;;12.62;100.00;100423.02;109628;1241;60710;-72
2023/10/22 01:53:14;;;;;;;;;;;;;;;12.61;100.00;100421.92;109667;1245;64991;-70
2023/10/22 01:55:43;;;;;;;;;;;;;;;12.56;100.00;100422.50;109722;1241;61200;-70
2023/10/22 01:58:11;;;;;;;;;;;;;;;12.51;100.00;100412.85;109553;1241;60228;-71
2023/10/22 02:00:40;;;;;;;;;;;;;;;12.47;100.00;100408.40;109626;1244;71967;-70
2023/10/22 02:03:08;;;;;;;;;;;;;;;12.42;100.00;100413.89;109456;1245;62278;-71
2023/10/22 02:05:37;;;;;;;;;;;;;;;12.39;100.00;100411.20;109501;1245;58347;-72
2023/10/22 02:08:06;;;;;;;;;;;;;;;12.37;100.00;100412.94;109610;1241;73359;-71
2023/10/22 02:10:34;;;;;;;;;;;;;;;12.33;100.00;100405.23;109696;1241;72368;-71
2023/10/22 02:13:03;;;;;;;;;;;;;;;12.29;100.00;100399.98;109621;1245;59388;-71
2023/10/22 02:15:32;;;;;;;;;;;;;;;12.28;100.00;100399.18;109677;1245;63214;-72
2023/10/22 02:18:00;;;;;;;;;;;;;;;12.28;100.00;100397.80;109572;1245;61826;-73
2023/10/22 02:20:29;;;;;;;;;;;;;;;12.28;100.00;100397.09;109695;1244;57898;-73
2023/10/22 02:22:59;;;;;;;;;;;;;;;12.26;100.00;100398.98;109591;1241;73639;-69
2023/10/22 02:25:27;;;;;;;;;;;;;;;12.33;100.00;100422.29;109692;1241;72350;-71
2023/10/22 02:27:56;;;;;;;;;;;;;;;12.31;100.00;100433.55;109612;1245;58984;-71
2023/10/22 02:30:24;;;;;;;;;;;;;;;12.23;100.00;100423.91;109632;1241;64625;-73
2023/10/22 02:32:53;;;;;;;;;;;;;;;12.17;100.00;100420.70;109608;1245;57835;-71
2023/10/22 02:35:21;;;;;;;;;;;;;;;12.19;100.00;100416.55;109632;1241;60008;-71
2023/10/22 02:37:51;;;;;;;;;;;;;;;12.24;100.00;100417.73;109709;1245;74547;-71
2023/10/22 02:40:20;;;;;;;;;;;;;;;12.29;100.00;100420.09;109627;1246;62139;-71
2023/10/22 02:42:48;;;;;;;;;;;;;;;12.28;100.00;100427.11;109722;1241;70826;-71
2023/10/22 02:45:17;;;;;;;;;;;;;;;12.24;100.00;100426.89;109625;1246;63592;-71
2023/10/22 02:47:45;;;;;;;;;;;;;;;12.20;100.00;100421.48;109613;1245;58330;-71
2023/10/22 02:50:14;;;;;;;;;;;;;;;12.18;100.00;100417.27;109743;1245;58283;-71
2023/10/22 02:52:42;;;;;;;;;;;;;;;12.23;100.00;100415.89;109753;1242;74332;-71
2023/10/22 02:55:11;;;;;;;;;;;;;;;12.21;100.00;100415.13;109744;1245;61760;-71
2023/10/22 02:57:39;;;;;;;;;;;;;;;12.17;100.00;100421.20;109731;1241;70293;-71
2023/10/22 03:00:11;;;;;;;;;;;;;;;12.11;100.00;100427.48;109629;1246;63356;-71
2023/10/22 03:02:56;;;;;;;;;;;;;;;12.03;100.00;100433.20;109632;1246;62877;-71
2023/10/22 03:05:25;;;;;;;;;;;;;;;11.93;100.00;100427.23;109587;1245;59678;-79
2023/10/22 03:07:53;;;;;;;;;;;;;;;11.95;100.00;100413.33;109680;1243;72327;-71
2023/10/22 03:10:22;;;;;;;;;;;;;;;11.94;100.00;100412.34;109683;1243;61383;-71
2023/10/22 03:12:50;;;;;;;;;;;;;;;11.98;100.00;100412.20;109673;1245;70334;-71
2023/10/22 03:15:19;;;;;;;;;;;;;;;11.97;100.00;100411.38;109545;1245;63768;-72
2023/10/22 03:17:47;;;;;;;;;;;;;;;11.99;100.00;100415.45;109540;1244;61860;-72
2023/10/22 03:20:18;;;;;;;;;;;;;;;11.98;100.00;100416.91;109358;1245;57786;-72
2023/10/22 03:22:48;;;;;;;;;;;;;;;11.92;100.00;100415.09;109451;1245;74175;-71
2023/10/22 03:25:18;;;;;;;;;;;;;;;11.86;100.00;100409.46;109557;1244;60986;-71
2023/10/22 03:27:47;;;;;;;;;;;;;;;11.84;100.00;100400.38;109571;1241;68045;-70
2023/10/22 03:30:17;;;;;;;;;;;;;;;11.85;100.00;100398.08;109574;1244;62854;-73
2023/10/22 03:32:46;;;;;;;;;;;;;;;11.86;100.00;100398.52;109563;1245;57695;-74
2023/10/22 03:35:17;;;;;;;;;;;;;;;11.83;100.00;100404.70;109723;1241;59252;-72
2023/10/22 03:37:45;;;;;;;;;;;;;;;11.74;100.00;100398.45;109589;1241;74203;-72
2023/10/22 03:40:14;;;;;;;;;;;;;;;11.66;100.00;100394.73;109711;1245;61884;-72
2023/10/22 03:42:44;;;;;;;;;;;;;;;11.67;100.00;100394.23;109686;1241;70310;-72
2023/10/22 03:45:13;;;;;;;;;;;;;;;11.69;100.00;100396.05;109611;1241;71194;-72
2023/10/22 03:47:41;;;;;;;;;;;;;;;11.65;100.00;100392.14;109606;1245;61463;-72
2023/10/22 03:50:16;;;;;;;;;;;;;;;11.66;100.00;100392.39;110458;1235;58113;-71
2023/10/22 03:53:13;;;;;;;;;;;;;;;11.66;100.00;100387.24;110308;1236;73539;-71
2023/10/22 03:55:42;;;;;;;;;;;;;;;11.59;100.00;100389.05;110443;1233;61538;-72
2023/10/22 03:58:11;;;;;;;;;;;;;;;11.56;100.00;100393.12;110397;1234;59980;-71
2023/10/22 04:00:39;;;;;;;;;;;;;;;11.50;100.00;100391.11;110357;1235;72843;-71
2023/10/22 04:03:08;;;;;;;;;;;;;;;11.46;100.00;100385.75;110177;1238;58309;-72
2023/10/22 04:05:38;;;;;;;;;;;;;;;11.41;100.00;100385.39;110321;1235;57769;-73
2023/10/22 04:08:07;;;;;;;;;;;;;;;11.46;100.00;100389.02;110425;1235;73341;-73
2023/10/22 04:10:44;;;;;;;;;;;;;;;11.49;100.00;100391.23;110425;1235;72355;-73
2023/10/22 04:13:12;;;;;;;;;;;;;;;11.44;100.00;100392.86;110319;1235;61402;-72
2023/10/22 04:15:41;;;;;;;;;;;;;;;11.36;100.00;100391.20;110387;1235;63956;-72
2023/10/22 04:18:17;;;;;;;;;;;;;;;11.32;100.00;100394.30;110400;1236;58296;-72
2023/10/22 04:20:46;;;;;;;;;;;;;;;11.29;100.00;100394.55;110313;1235;60830;-73
2023/10/22 04:23:14;;;;;;;;;;;;;;;11.30;100.00;100392.23;110405;1235;74287;-73
2023/10/22 04:25:44;;;;;;;;;;;;;;;11.28;100.00;100394.29;110392;1235;62148;-74
2023/10/22 04:28:13;;;;;;;;;;;;;;;11.26;100.00;100394.10;110425;1234;59839;-74
2023/10/22 04:30:45;;;;;;;;;;;;;;;11.26;100.00;100403.85;110306;1234;63216;-73
2023/10/22 04:33:14;;;;;;;;;;;;;;;11.26;100.00;100398.67;110314;1238;61879;-72
2023/10/22 04:35:43;;;;;;;;;;;;;;;11.23;100.00;100405.51;110388;1234;58349;-73
2023/10/22 04:38:13;;;;;;;;;;;;;;;11.24;100.00;100400.25;110271;1236;74167;-73
2023/10/22 04:40:42;;;;;;;;;;;;;;;11.27;100.00;100392.48;110283;1234;63522;-73
2023/10/22 04:43:12;;;;;;;;;;;;;;;11.28;100.00;100391.15;110302;1235;59591;-72
2023/10/22 04:45:47;;;;;;;;;;;;;;;11.25;100.00;100393.70;110135;1234;73837;-73
2023/10/22 04:48:16;;;;;;;;;;;;;;;11.28;100.00;100397.08;110170;1237;58052;-74
2023/10/22 04:50:45;;;;;;;;;;;;;;;11.26;100.00;100401.06;110190;1234;60153;-75
2023/10/22 04:53:14;;;;;;;;;;;;;;;11.25;100.00;100412.84;110185;1235;64206;-72
2023/10/22 04:55:42;;;;;;;;;;;;;;;11.25;100.00;100411.48;110308;1234;72145;-71
2023/10/22 04:58:11;;;;;;;;;;;;;;;11.27;100.00;100420.91;110281;1235;59533;-72
2023/10/22 05:00:40;;;;;;;;;;;;;;;11.33;100.00;100419.40;110201;1235;62497;-70
2023/10/22 05:03:09;;;;;;;;;;;;;;;11.36;100.00;100424.56;110255;1237;62664;-70
2023/10/22 05:05:38;;;;;;;;;;;;;;;11.44;100.00;100425.95;110292;1235;60763;-70
2023/10/22 05:08:07;;;;;;;;;;;;;;;11.47;100.00;100428.02;110339;1235;64407;-70
2023/10/22 05:10:39;;;;;;;;;;;;;;;11.51;100.00;100443.89;110286;1235;61430;-71
2023/10/22 05:13:09;;;;;;;;;;;;;;;11.55;100.00;100444.97;110406;1235;69165;-73
2023/10/22 05:15:37;;;;;;;;;;;;;;;11.59;100.00;100437.35;110273;1235;73168;-71
2023/10/22 05:18:07;;;;;;;;;;;;;;;11.68;100.00;100432.38;110206;1238;58599;-73
2023/10/22 05:20:35;;;;;;;;;;;;;;;11.79;100.00;100439.38;110253;1234;60820;-73
2023/10/22 05:23:05;;;;;;;;;;;;;;;11.89;100.00;100442.43;110237;1235;74812;-73
2023/10/22 05:25:33;;;;;;;;;;;;;;;12.02;100.00;100445.16;109951;1236;410290;-72
2023/10/22 05:28:02;;;;;;;;;;;;;;;12.09;100.00;100442.29;110259;1235;59595;-72
2023/10/22 05:30:31;;;;;;;;;;;;;;;12.18;100.00;100443.65;110213;1235;73750;-72
2023/10/22 05:33:01;;;;;;;;;;;;;;;12.29;100.00;100447.46;110220;1234;57726;-72
2023/10/22 05:35:34;;;;;;;;;;;;;;;12.42;100.00;100452.31;110196;1236;58281;-72
2023/10/22 05:38:02;;;;;;;;;;;;;;;12.61;100.00;100453.14;109992;1235;73596;-71
2023/10/22 05:40:37;;;;;;;;;;;;;;;12.80;100.00;100447.02;110222;1235;61529;-72
2023/10/22 05:43:05;;;;;;;;;;;;;;;13.02;100.00;100447.21;110108;1238;70238;-71
2023/10/22 05:45:35;;;;;;;;;;;;;;;13.21;100.00;100450.77;110236;1235;63475;-71
2023/10/22 05:48:03;;;;;;;;;;;;;;;13.51;100.00;100451.16;110242;1235;62776;-71
2023/10/22 05:50:36;;;;;;;;;;;;;;;13.75;100.00;100447.93;110235;1234;61545;-77
2023/10/22 05:53:05;;;;;;;;;;;;;;;14.02;100.00;100446.05;110256;1235;64057;-71
2023/10/22 05:55:33;;;;;;;;;;;;;;;14.27;100.00;100443.41;110273;1235;71051;-74
2023/10/22 05:58:02;;;;;;;;;;;;;;;14.52;100.00;100446.20;110164;1234;60215;-74
2023/10/22 06:00:31;;;;;;;;;;;;;;;14.78;100.00;100438.64;110189;1234;63240;-72
2023/10/22 06:03:00;;;;;;;;;;;;;;;15.03;100.00;100437.71;110171;1234;58199;-76
2023/10/22 06:05:28;;;;;;;;;;;;;;;15.29;100.00;100437.45;110171;1235;60999;-72
2023/10/22 06:07:57;;;;;;;;;;;;;;;15.55;100.00;100435.34;110230;1234;63471;-72
2023/10/22 06:10:27;;;;;;;;;;;;;;;15.83;100.00;100433.30;110262;1234;71268;-73
2023/10/22 06:12:56;;;;;;;;;;;;;;;16.10;100.00;100430.08;110288;1234;60294;-72
2023/10/22 06:15:25;;;;;;;;;;;;;;;16.40;100.00;100428.40;110269;1234;72946;-72
2023/10/22 06:17:54;;;;;;;;;;;;;;;16.64;100.00;100428.14;110215;1234;58279;-73
2023/10/22 06:20:23;;;;;;;;;;;;;;;16.92;100.00;100428.77;110324;1235;59855;-71
2023/10/22 06:22:51;;;;;;;;;;;;;;;17.14;100.00;100425.02;110426;1234;65337;-72
2023/10/22 06:25:20;;;;;;;;;;;;;;;17.37;100.00;100420.67;110423;1235;70923;-73
2023/10/22 06:27:48;;;;;;;;;;;;;;;17.54;100.00;100423.80;110447;1235;70829;-74
2023/10/22 06:30:22;;;;;;;;;;;;;;;17.74;100.00;100419.98;110483;1235;63720;-73
2023/10/22 06:32:58;;;;;;;;;;;;;;;17.91;100.00;100413.88;110440;1236;62694;-76
2023/10/22 06:35:30;;;;;;;;;;;;;;;17.87;100.00;100418.73;110355;1236;57753;-75
2023/10/22 06:37:59;;;;;;;;;;;;;;;18.04;100.00;100414.14;110380;1235;63570;-75
2023/10/22 06:40:27;;;;;;;;;;;;;;;18.32;100.00;100409.73;110338;1235;71367;-74
2023/10/22 06:42:56;;;;;;;;;;;;;;;18.58;100.00;100402.92;110308;1237;60660;-74
2023/10/22 06:45:28;;;;;;;;;;;;;;;18.79;100.00;100398.92;110388;1235;74443;-74
2023/10/22 06:47:56;;;;;;;;;;;;;;;19.07;100.00;100408.15;110357;1234;61346;-73
2023/10/22 06:50:25;;;;;;;;;;;;;;;19.28;100.00;100401.02;110429;1235;57789;-81
2023/10/22 06:52:54;;;;;;;;;;;;;;;19.60;100.00;100407.02;110457;1235;64144;-79
2023/10/22 06:55:22;;;;;;;;;;;;;;;19.84;100.00;100409.24;110423;1234;72099;-79
2023/10/22 06:57:51;;;;;;;;;;;;;;;20.09;100.00;100415.81;110480;1236;59400;-76
2023/10/22 07:00:19;;;;;;;;;;;;;;;20.28;100.00;100420.80;110434;1235;73022;-78
2023/10/22 07:02:48;;;;;;;;;;;;;;;20.43;100.00;100419.52;110339;1235;58488;-76
2023/10/22 07:05:17;;;;;;;;;;;;;;;20.59;100.00;100420.19;110472;1234;57885;-75
2023/10/22 07:07:45;;;;;;;;;;;;;;;20.80;100.00;100415.19;110424;1234;73313;-76
2023/10/22 07:10:14;;;;;;;;;;;;;;;20.93;100.00;100418.55;110444;1236;61490;-77
2023/10/22 07:12:43;;;;;;;;;;;;;;;20.96;100.00;100411.88;110417;1234;70407;-76
2023/10/22 07:15:12;;;;;;;;;;;;;;;21.16;98.68;100407.88;110382;1234;73321;-77
2023/10/22 07:17:41;;;;;;;;;;;;;;;21.33;98.03;100401.02;110214;1236;61820;-72
2023/10/22 07:20:12;;;;;;;;;;;;;;;21.31;94.98;100398.45;110276;1235;61292;-68
2023/10/22 07:22:41;;;;;;;;;;;;;;;21.50;97.27;100391.79;110162;1235;73572;-74
2023/10/22 07:25:09;;;;;;;;;;;;;;;21.64;98.27;100385.27;110247;1234;72432;-72
2023/10/22 07:27:38;;;;;;;;;;;;;;;21.66;94.13;100385.17;110282;1236;60261;-81
2023/10/22 07:30:07;;;;;;;;;;;;;;;21.95;98.12;100376.48;110261;1234;72983;-73
2023/10/22 07:32:36;;;;;;;;;;;;;;;22.15;97.82;100377.30;110239;1235;58613;-73
2023/10/22 07:35:06;;;;;;;;;;;;;;;22.28;95.70;100374.53;110279;1233;58449;-78
2023/10/22 07:37:36;;;;;;;;;;;;;;;22.43;93.46;100368.28;110276;1234;74252;-78
2023/10/22 07:40:05;;;;;;;;;;;;;;;22.62;94.08;100373.33;110175;1235;70407;-77
2023/10/22 07:42:34;;;;;;;;;;;;;;;22.78;97.02;100365.52;110267;1234;60455;-80
2023/10/22 07:45:03;;;;;;;;;;;;;;;22.84;92.36;100365.73;110309;1237;72853;-78
2023/10/22 07:47:31;;;;;;;;;;;;;;;22.95;94.18;100370.63;110238;1234;61576;-76
2023/10/22 07:50:00;;;;;;;;;;;;;;;23.01;91.71;100370.00;110200;1237;58275;-75
2023/10/22 07:52:30;;;;;;;;;;;;;;;22.95;90.93;100368.79;110079;1235;74392;-76
2023/10/22 07:54:59;;;;;;;;;;;;;;;22.86;91.79;100366.80;110073;1235;61083;-77
2023/10/22 07:57:28;;;;;;;;;;;;;;;22.91;93.09;100366.46;110203;1234;69672;-77
2023/10/22 07:59:56;;;;;;;;;;;;;;;22.98;89.81;100369.89;109908;1235;74365;-78
2023/10/22 08:02:25;;;;;;;;;;;;;;;23.21;93.08;100362.57;110157;1235;58371;-77
2023/10/22 08:04:54;;;;;;;;;;;;;;;23.32;89.73;100359.00;110123;1235;59960;-77
2023/10/22 08:07:22;;;;;;;;;;;;;;;23.33;88.18;100357.61;110178;1237;65626;-77
2023/10/22 08:09:51;;;;;;;;;;;;;;;23.32;87.08;100364.69;110123;1235;71957;-78
2023/10/22 08:12:19;;;;;;;;;;;;;;;23.42;86.74;100366.77;110257;1234;59606;-77
2023/10/22 08:14:50;;;;;;;;;;;;;;;23.50;86.22;100373.98;110262;1235;73095;-77
2023/10/22 08:17:21;;;;;;;;;;;;;;;23.75;88.33;100366.98;110387;1236;60733;-78
2023/10/22 08:19:50;;;;;;;;;;;;;;;23.99;89.87;100359.79;110324;1235;58355;-78
2023/10/22 08:22:19;;;;;;;;;;;;;;;24.13;84.49;100361.25;110393;1235;74243;-78
2023/10/22 08:24:48;;;;;;;;;;;;;;;24.28;85.04;100368.30;110455;1234;62979;-77
2023/10/22 08:27:17;;;;;;;;;;;;;;;24.48;88.39;100368.96;110364;1235;60515;-78
2023/10/22 08:29:47;;;;;;;;;;;;;;;24.59;81.28;100371.80;110365;1235;64869;-78
2023/10/22 08:32:15;;;;;;;;;;;;;;;24.42;75.61;100367.55;110351;1235;61015;-79
2023/10/22 08:34:44;;;;;;;;;;;;;;;24.51;78.50;100363.19;110285;1235;57778;-78
2023/10/22 08:37:12;;;;;;;;;;;;;;;24.79;82.84;100358.70;110202;1236;74213;-79
2023/10/22 08:39:41;;;;;;;;;;;;;;;24.79;75.44;100357.91;110215;1235;71215;-77
2023/10/22 08:42:16;;;;;;;;;;;;;;;24.63;69.93;100357.05;110238;1235;70780;-79
2023/10/22 08:44:46;;;;;;;;;;;;;;;24.69;70.40;100363.39;109969;1234;74142;-80
2023/10/22 08:47:15;;;;;;;;;;;;;;;24.85;71.37;100368.36;110108;1237;61808;-80
2023/10/22 08:49:44;;;;;;;;;;;;;;;24.97;71.63;100371.27;110237;1234;57794;-79
2023/10/22 08:52:14;;;;;;;;;;;;;;;24.98;67.91;100373.77;110128;1235;63602;-80
2023/10/22 08:54:46;;;;;;;;;;;;;;;25.01;67.76;100376.98;110257;1234;72190;-78
2023/10/22 08:57:16;;;;;;;;;;;;;;;25.22;69.80;100377.66;110268;1235;69316;-79
2023/10/22 08:59:48;;;;;;;;;;;;;;;25.32;68.47;100384.91;110180;1235;74382;-80
2023/10/22 09:02:21;;;;;;;;;;;;;;;25.39;65.13;100385.78;110148;1238;57807;-81
2023/10/22 09:04:50;;;;;;;;;;;;;;;25.54;63.86;100385.72;110308;1234;58263;-81
2023/10/22 09:07:19;;;;;;;;;;;;;;;25.72;64.19;100380.79;110298;1236;63569;-79
2023/10/22 09:09:47;;;;;;;;;;;;;;;25.69;60.65;100369.16;110154;1234;71689;-80
2023/10/22 09:12:21;;;;;;;;;;;;;;;25.79;59.00;100374.52;110283;1235;60155;-79
2023/10/22 09:14:58;;;;;;;;;;;;;;;25.96;57.48;100367.88;110267;1237;63029;-81
2023/10/22 09:17:29;;;;;;;;;;;;;;;26.07;57.23;100362.39;110339;1236;58321;-76
2023/10/22 09:20:01;;;;;;;;;;;;;;;26.09;56.71;100368.46;110341;1234;60007;-76
2023/10/22 09:22:29;;;;;;;;;;;;;;;26.05;55.22;100371.05;110394;1235;74697;-80
2023/10/22 09:24:58;;;;;;;;;;;;;;;26.03;54.94;100366.25;110461;1236;61399;-79
2023/10/22 09:27:30;;;;;;;;;;;;;;;25.92;53.97;100367.44;110464;1235;71051;-79
2023/10/22 09:30:00;;;;;;;;;;;;;;;26.07;53.70;100367.64;110321;1238;63785;-75
2023/10/22 09:32:28;;;;;;;;;;;;;;;26.13;53.82;100363.06;110506;1233;61659;-76
2023/10/22 09:35:14;;;;;;;;;;;;;;;26.19;53.58;100364.78;110496;1234;58212;-75
2023/10/22 09:37:50;;;;;;;;;;;;;;;26.35;53.18;100359.61;110318;1235;63727;-75
2023/10/22 09:40:19;;;;;;;;;;;;;;;26.44;52.61;100356.46;110309;1235;72051;-75
2023/10/22 09:42:49;;;;;;;;;;;;;;;26.44;52.06;100360.61;110324;1237;59618;-73
2023/10/22 09:45:18;;;;;;;;;;;;;;;26.64;53.08;100357.66;110210;1239;71935;-75
2023/10/22 09:47:48;;;;;;;;;;;;;;;26.80;53.17;100353.14;110327;1234;60439;-76
2023/10/22 09:50:40;;;;;;;;;;;;;;;26.85;52.06;100352.59;110263;1234;61163;-75
2023/10/22 09:53:11;;;;;;;;;;;;;;;26.92;51.67;100355.84;110425;1235;73397;-74
2023/10/22 09:55:40;;;;;;;;;;;;;;;27.12;52.22;100357.80;110475;1235;62830;-73
2023/10/22 09:58:15;;;;;;;;;;;;;;;27.27;51.13;100357.60;110330;1235;59287;-75
2023/10/22 10:00:44;;;;;;;;;;;;;;;27.26;50.18;100356.91;110335;1235;64204;-73
2023/10/22 10:03:20;;;;;;;;;;;;;;;27.50;52.65;100357.83;110436;1236;58233;-74
2023/10/22 10:05:51;;;;;;;;;;;;;;;27.38;49.96;100359.52;110469;1234;59798;-73
2023/10/22 10:08:20;;;;;;;;;;;;;;;27.22;49.20;100358.41;110351;1234;74877;-73
2023/10/22 10:10:49;;;;;;;;;;;;;;;27.34;49.33;100347.88;110135;1235;71618;-73
2023/10/22 10:13:17;;;;;;;;;;;;;;;27.18;49.25;100343.29;110401;1235;70938;-74
2023/10/22 10:15:57;;;;;;;;;;;;;;;27.17;49.34;100340.75;110368;1237;62761;-74
2023/10/22 10:19:02;;;;;;;;;;;;;;;27.47;48.96;100335.02;110351;1234;61052;-75
2023/10/22 10:21:33;;;;;;;;;;;;;;;27.33;50.03;100330.44;109774;1242;60581;-75
2023/10/22 10:24:14;;;;;;;;;;;;;;;27.53;50.08;100338.71;110249;1234;65821;-75
2023/10/22 10:26:44;;;;;;;;;;;;;;;27.71;50.61;100336.65;110446;1234;72690;-76
2023/10/22 10:29:28;;;;;;;;;;;;;;;27.83;50.24;100335.42;110514;1234;60371;-74
2023/10/22 10:32:15;;;;;;;;;;;;;;;28.15;48.09;100335.55;110347;1234;73741;-82
2023/10/22 10:34:47;;;;;;;;;;;;;;;27.95;47.25;100325.06;110445;1233;57819;-73
2023/10/22 10:37:16;;;;;;;;;;;;;;;27.81;47.46;100314.86;110306;1234;57735;-75
2023/10/22 10:39:46;;;;;;;;;;;;;;;27.76;46.71;100305.53;110442;1233;63587;-75
2023/10/22 10:42:36;;;;;;;;;;;;;;;27.70;48.11;100302.07;110466;1234;61565;-74
2023/10/22 10:45:07;;;;;;;;;;;;;;;27.71;48.04;100308.95;110460;1234;62040;-75
2023/10/22 10:47:37;;;;;;;;;;;;;;;27.78;46.62;100311.25;110254;1234;63396;-75
2023/10/22 10:50:17;;;;;;;;;;;;;;;27.61;46.61;100302.92;110349;1237;57910;-75
2023/10/22 10:52:48;;;;;;;;;;;;;;;27.68;48.17;100300.13;110390;1234;61340;-75
2023/10/22 10:55:20;;;;;;;;;;;;;;;27.65;47.85;100299.73;110362;1234;63345;-75
2023/10/22 10:57:53;;;;;;;;;;;;;;;27.66;47.84;100307.74;110455;1234;71129;-76
2023/10/22 11:00:30;;;;;;;;;;;;;;;27.55;48.16;100311.03;110432;1235;70235;-76
2023/10/22 11:03:04;;;;;;;;;;;;;;;27.92;47.32;100310.59;110453;1234;63535;-77
2023/10/22 11:05:37;;;;;;;;;;;;;;;28.19;47.19;100307.83;110350;1235;61210;-75
2023/10/22 11:08:11;;;;;;;;;;;;;;;28.39;46.69;100310.14;110465;1233;58222;-75
2023/10/22 11:10:40;;;;;;;;;;;;;;;28.55;46.50;100309.34;110453;1235;63494;-76
2023/10/22 11:13:09;;;;;;;;;;;;;;;28.54;45.52;100308.73;110483;1234;61946;-75
2023/10/22 11:15:38;;;;;;;;;;;;;;;28.49;45.86;100306.47;110439;1234;61484;-74
2023/10/22 11:18:11;;;;;;;;;;;;;;;28.85;45.36;100302.13;110326;1235;73580;-74
2023/10/22 11:20:40;;;;;;;;;;;;;;;28.87;45.63;100301.79;110462;1235;62315;-76
2023/10/22 11:23:17;;;;;;;;;;;;;;;29.15;45.20;100300.09;110493;1234;57768;-80
2023/10/22 11:25:46;;;;;;;;;;;;;;;29.21;44.55;100301.11;110465;1234;62860;-79
2023/10/22 11:28:15;;;;;;;;;;;;;;;29.19;44.84;100298.70;110428;1234;60834;-80
2023/10/22 11:30:43;;;;;;;;;;;;;;;29.01;43.94;100302.18;110411;1235;69812;-77
2023/10/22 11:33:28;;;;;;;;;;;;;;;29.05;43.68;100305.23;110406;1234;62566;-78
2023/10/22 11:35:56;;;;;;;;;;;;;;;28.73;43.85;100296.20;110446;1236;60083;-79
2023/10/22 11:38:26;;;;;;;;;;;;;;;28.99;44.00;100295.98;110355;1235;58322;-78
2023/10/22 11:40:55;;;;;;;;;;;;;;;29.08;43.87;100292.48;110436;1234;74204;-77
2023/10/22 11:43:26;;;;;;;;;;;;;;;29.17;43.92;100292.33;110377;1234;62027;-77
2023/10/22 11:45:58;;;;;;;;;;;;;;;29.01;43.86;100286.35;110404;1235;70225;-70
2023/10/22 11:48:27;;;;;;;;;;;;;;;29.12;43.75;100284.52;110306;1234;62642;-69
2023/10/22 11:51:01;;;;;;;;;;;;;;;29.28;43.08;100286.88;110216;1236;58282;-69
2023/10/22 11:53:41;;;;;;;;;;;;;;;29.42;43.22;100294.14;109951;1235;58271;-69
2023/10/22 11:56:09;;;;;;;;;;;;;;;29.67;43.26;100294.68;110167;1234;75070;-68
2023/10/22 11:58:38;;;;;;;;;;;;;;;29.92;43.25;100291.50;110188;1234;61527;-69
2023/10/22 12:01:06;;;;;;;;;;;;;;;30.09;41.54;100283.67;110179;1235;69674;-68
2023/10/22 12:03:35;;;;;;;;;;;;;;;29.99;42.07;100287.08;110155;1234;62707;-68
2023/10/22 12:06:04;;;;;;;;;;;;;;;30.09;42.00;100290.02;110137;1235;57734;-70
2023/10/22 12:08:32;;;;;;;;;;;;;;;30.33;41.87;100287.95;110176;1234;60219;-69
2023/10/22 12:11:01;;;;;;;;;;;;;;;30.29;42.07;100286.79;110186;1235;63423;-68
2023/10/22 12:13:32;;;;;;;;;;;;;;;30.55;41.85;100290.27;110164;1234;72100;-69
2023/10/22 12:16:01;;;;;;;;;;;;;;;30.92;40.66;100291.15;110128;1234;59694;-68
2023/10/22 12:18:30;;;;;;;;;;;;;;;30.80;40.35;100294.15;110046;1234;74183;-69
2023/10/22 12:21:01;;;;;;;;;;;;;;;31.11;39.04;100297.69;110027;1235;58243;-68
2023/10/22 12:23:30;;;;;;;;;;;;;;;31.08;39.58;100302.27;110207;1234;57880;-68
2023/10/22 12:26:16;;;;;;;;;;;;;;;31.50;39.24;100299.34;110119;1234;73665;-68
2023/10/22 12:28:45;;;;;;;;;;;;;;;31.44;39.10;100296.75;110304;1234;60612;-72
2023/10/22 12:31:13;;;;;;;;;;;;;;;31.71;39.17;100299.42;110225;1234;70970;-70
2023/10/22 12:33:42;;;;;;;;;;;;;;;32.28;38.51;100298.85;110347;1234;65396;-68
2023/10/22 12:36:11;;;;;;;;;;;;;;;32.56;37.31;100295.92;110282;1237;58841;-68